메인 페이지
METAR-TAF:

METAR-TAF

공항 :

Wichita Falls Municipal Airport / Sheppard Air Force Base

위치토폴스, 텍사스, 미국

위도: 33-58-43N, 경도: 098-29-34W, 고도: 309m

현재 날씨관측

예보는 47분 전, 02:52시(UTC)에 발표되었습니다.
북북동9kt
온도 7°C
습도 93%
기압 1019 hPa
시정: 16.1km
고도 2800ft 상공 구름 많음
고도 4100ft 상공 흐림

METAR: KSPS 260252Z 03009KT 10SM BKN028 OVC041 07/06 A3009 RMK AO2 SLP193 60001 T00720061 56008

시각: 21:39 (03:39 UTC)

예보

예보는 4 시간 16분 전, 23:23시(UTC)에 발표되었습니다.
예보 대상 시간: 26일 00시부터 26일 24시까지 (UTC)
북동10kt
시정: 10km
고도 5000ft 상공 흐림
약한소나기
26일 0300시부터 (UTC)
북북동8kt
시정: 10km
고도 3000ft 상공 흐림
26일 1700시부터 (UTC)
북북서5kt
시정: 10km
고도 1500ft 상공 흐림
26일 2300시부터 (UTC)
남남서6kt
시정: 10km
고도 12000ft 상공 구름 많음

TAF: KSPS 252323Z 2600/2624 05010KT P6SM -SHRA OVC050 FM260300 02008KT P6SM OVC030 FM261700 33005KT P6SM OVC015 FM262300 21006KT P6SM BKN120

4,000개 이상의 공항 관측 자료 및 예보 (METAR 및 TAF 보고).

지도상에서 검색 가능한 기상관측소가 노란 점과 빨간 점으로 표시되어 있습니다.

기상관측소 명을 보려면 표시 위로 마우스를 이동하세요.

날씨 관측과 예보를 보려면 클릭하세요.

지도 변경 : 확대하려면 엑스 표시가 있는 녹색 버튼, 축소하려면 빼기 표시가 있는 녹색 버튼, 다음 페이지의 지도를 보려면 녹색 화살표를 클릭하세요.


METAR-TAF: